sensor_id;sensor_type;location;lat;lon;timestamp;pressure;altitude;pressure_sealevel;temperature;humidity
4199;BME280;2113;50.946;14.610;2023-02-22T00:01:56;97095.19;;;12.30;59.37
4199;BME280;2113;50.946;14.610;2023-02-22T00:04:39;97094.06;;;12.17;60.26
4199;BME280;2113;50.946;14.610;2023-02-22T00:07:07;97084.13;;;12.25;59.98
4199;BME280;2113;50.946;14.610;2023-02-22T00:09:36;97096.13;;;12.50;58.83
4199;BME280;2113;50.946;14.610;2023-02-22T00:12:04;97091.78;;;12.69;58.67
4199;BME280;2113;50.946;14.610;2023-02-22T00:14:34;97089.34;;;12.46;59.06
4199;BME280;2113;50.946;14.610;2023-02-22T00:17:03;97092.22;;;12.19;60.08
4199;BME280;2113;50.946;14.610;2023-02-22T00:19:32;97079.88;;;12.43;58.87
4199;BME280;2113;50.946;14.610;2023-02-22T00:22:00;97091.19;;;12.63;58.58
4199;BME280;2113;50.946;14.610;2023-02-22T00:24:28;97093.53;;;12.29;59.52
4199;BME280;2113;50.946;14.610;2023-02-22T00:26:57;97088.72;;;12.60;59.07
4199;BME280;2113;50.946;14.610;2023-02-22T00:29:25;97076.53;;;12.60;58.82
4199;BME280;2113;50.946;14.610;2023-02-22T00:31:54;97079.91;;;12.62;58.49
4199;BME280;2113;50.946;14.610;2023-02-22T00:34:24;97070.50;;;12.79;58.96
4199;BME280;2113;50.946;14.610;2023-02-22T00:36:52;97070.50;;;12.79;58.36
4199;BME280;2113;50.946;14.610;2023-02-22T00:39:20;97067.88;;;12.98;57.81
4199;BME280;2113;50.946;14.610;2023-02-22T00:41:48;97071.34;;;12.98;57.68
4199;BME280;2113;50.946;14.610;2023-02-22T00:44:16;97069.75;;;12.56;58.56
4199;BME280;2113;50.946;14.610;2023-02-22T00:46:44;97080.19;;;12.56;58.64
4199;BME280;2113;50.946;14.610;2023-02-22T00:49:13;97066.66;;;12.48;58.59
4199;BME280;2113;50.946;14.610;2023-02-22T00:51:43;97068.94;;;12.75;58.27
4199;BME280;2113;50.946;14.610;2023-02-22T00:54:11;97070.78;;;12.12;60.01
4199;BME280;2113;50.946;14.610;2023-02-22T00:56:40;97069.63;;;12.78;58.24
4199;BME280;2113;50.946;14.610;2023-02-22T00:59:08;97064.91;;;13.05;56.84
4199;BME280;2113;50.946;14.610;2023-02-22T01:01:36;97067.25;;;12.92;57.31
4199;BME280;2113;50.946;14.610;2023-02-22T01:04:04;97076.81;;;12.33;57.11
4199;BME280;2113;50.946;14.610;2023-02-22T01:06:33;97077.13;;;11.20;59.20
4199;BME280;2113;50.946;14.610;2023-02-22T01:09:03;97078.97;;;10.94;60.40
4199;BME280;2113;50.946;14.610;2023-02-22T01:11:33;97078.06;;;10.95;60.56
4199;BME280;2113;50.946;14.610;2023-02-22T01:14:01;97087.94;;;11.09;59.91
4199;BME280;2113;50.946;14.610;2023-02-22T01:16:29;97076.38;;;11.61;58.10
4199;BME280;2113;50.946;14.610;2023-02-22T01:18:57;97083.59;;;11.32;58.39
4199;BME280;2113;50.946;14.610;2023-02-22T01:21:27;97083.78;;;10.82;59.62
4199;BME280;2113;50.946;14.610;2023-02-22T01:23:55;97081.16;;;10.58;60.37
4199;BME280;2113;50.946;14.610;2023-02-22T01:26:26;97076.44;;;11.15;59.09
4199;BME280;2113;50.946;14.610;2023-02-22T01:28:54;97078.13;;;10.94;59.53
4199;BME280;2113;50.946;14.610;2023-02-22T01:31:24;97081.88;;;10.63;60.14
4199;BME280;2113;50.946;14.610;2023-02-22T01:33:53;97076.75;;;11.07;58.94
4199;BME280;2113;50.946;14.610;2023-02-22T01:36:21;97078.44;;;11.30;58.57
4199;BME280;2113;50.946;14.610;2023-02-22T01:38:49;97077.63;;;10.84;59.22
4199;BME280;2113;50.946;14.610;2023-02-22T01:41:17;97078.97;;;10.94;58.81
4199;BME280;2113;50.946;14.610;2023-02-22T01:43:47;97075.28;;;11.00;58.53
4199;BME280;2113;50.946;14.610;2023-02-22T01:46:22;97085.78;;;11.43;58.22
4199;BME280;2113;50.946;14.610;2023-02-22T01:48:55;97084.78;;;11.89;56.78
4199;BME280;2113;50.946;14.610;2023-02-22T01:51:26;97077.94;;;12.07;55.84
4199;BME280;2113;50.946;14.610;2023-02-22T01:53:58;97075.28;;;11.44;57.06
4199;BME280;2113;50.946;14.610;2023-02-22T01:56:30;97074.59;;;11.61;56.73
4199;BME280;2113;50.946;14.610;2023-02-22T01:59:03;97082.69;;;11.98;55.86
4199;BME280;2113;50.946;14.610;2023-02-22T02:01:34;97081.63;;;10.69;58.72
4199;BME280;2113;50.946;14.610;2023-02-22T02:04:06;97083.88;;;8.68;64.99
4199;BME280;2113;50.946;14.610;2023-02-22T02:06:37;97079.09;;;9.40;64.49
4199;BME280;2113;50.946;14.610;2023-02-22T02:09:09;97077.38;;;10.90;60.92
4199;BME280;2113;50.946;14.610;2023-02-22T02:11:39;97073.81;;;11.81;58.10
4199;BME280;2113;50.946;14.610;2023-02-22T02:14:10;97074.09;;;11.95;56.37
4199;BME280;2113;50.946;14.610;2023-02-22T02:16:46;97065.78;;;10.99;58.42
4199;BME280;2113;50.946;14.610;2023-02-22T02:19:22;97066.22;;;11.10;58.27
4199;BME280;2113;50.946;14.610;2023-02-22T02:22:18;97068.09;;;11.29;58.18
4199;BME280;2113;50.946;14.610;2023-02-22T02:31:19;97065.38;;;11.74;56.83
4199;BME280;2113;50.946;14.610;2023-02-22T02:33:54;97066.38;;;11.72;56.82
4199;BME280;2113;50.946;14.610;2023-02-22T02:36:29;97058.88;;;11.42;57.13
4199;BME280;2113;50.946;14.610;2023-02-22T02:39:04;97059.16;;;11.14;57.61
4199;BME280;2113;50.946;14.610;2023-02-22T02:41:36;97062.94;;;11.71;56.56
4199;BME280;2113;50.946;14.610;2023-02-22T02:44:10;97058.25;;;11.37;57.02
4199;BME280;2113;50.946;14.610;2023-02-22T02:46:45;97061.94;;;11.31;57.73
4199;BME280;2113;50.946;14.610;2023-02-22T02:49:20;97064.38;;;10.90;58.49
4199;BME280;2113;50.946;14.610;2023-02-22T02:51:51;97051.50;;;11.09;58.20
4199;BME280;2113;50.946;14.610;2023-02-22T02:54:20;97057.47;;;11.35;57.53
4199;BME280;2113;50.946;14.610;2023-02-22T02:56:51;97048.00;;;11.54;56.97
4199;BME280;2113;50.946;14.610;2023-02-22T02:59:24;97049.97;;;11.27;57.96
4199;BME280;2113;50.946;14.610;2023-02-22T03:01:59;97056.72;;;10.15;59.37
4199;BME280;2113;50.946;14.610;2023-02-22T03:04:45;97045.13;;;9.98;60.81
4199;BME280;2113;50.946;14.610;2023-02-22T03:07:27;97050.13;;;10.05;60.81
4199;BME280;2113;50.946;14.610;2023-02-22T03:10:08;97049.41;;;10.73;59.88
4199;BME280;2113;50.946;14.610;2023-02-22T03:12:44;97052.22;;;10.91;58.41
4199;BME280;2113;50.946;14.610;2023-02-22T03:15:26;97053.38;;;10.84;58.71
4199;BME280;2113;50.946;14.610;2023-02-22T03:18:03;97059.34;;;9.36;61.92
4199;BME280;2113;50.946;14.610;2023-02-22T03:20:42;97059.84;;;9.48;62.32
4199;BME280;2113;50.946;14.610;2023-02-22T03:23:19;97056.16;;;10.55;59.85
4199;BME280;2113;50.946;14.610;2023-02-22T03:25:54;97049.44;;;11.17;58.15
4199;BME280;2113;50.946;14.610;2023-02-22T03:28:26;97049.97;;;10.82;58.24
4199;BME280;2113;50.946;14.610;2023-02-22T03:30:58;97047.16;;;11.32;57.78
4199;BME280;2113;50.946;14.610;2023-02-22T03:33:31;97040.25;;;11.09;57.34
4199;BME280;2113;50.946;14.610;2023-02-22T03:36:06;97043.31;;;11.41;56.93
4199;BME280;2113;50.946;14.610;2023-02-22T03:38:39;97044.97;;;11.43;57.16
4199;BME280;2113;50.946;14.610;2023-02-22T03:41:12;97045.84;;;11.22;56.83
4199;BME280;2113;50.946;14.610;2023-02-22T03:43:46;97043.28;;;11.20;57.32
4199;BME280;2113;50.946;14.610;2023-02-22T03:46:16;97049.09;;;11.27;57.27
4199;BME280;2113;50.946;14.610;2023-02-22T03:48:49;97042.56;;;11.16;57.98
4199;BME280;2113;50.946;14.610;2023-02-22T03:51:22;97051.84;;;11.00;57.62
4199;BME280;2113;50.946;14.610;2023-02-22T03:53:56;97049.50;;;9.73;60.85
4199;BME280;2113;50.946;14.610;2023-02-22T03:56:32;97046.19;;;10.18;60.28
4199;BME280;2113;50.946;14.610;2023-02-22T03:59:03;97042.38;;;10.75;58.78
4199;BME280;2113;50.946;14.610;2023-02-22T04:01:32;97041.59;;;10.97;57.94
4199;BME280;2113;50.946;14.610;2023-02-22T04:04:00;97047.19;;;10.14;60.53
4199;BME280;2113;50.946;14.610;2023-02-22T04:06:31;97041.31;;;10.09;60.60
4199;BME280;2113;50.946;14.610;2023-02-22T04:09:01;97045.84;;;9.52;61.79
4199;BME280;2113;50.946;14.610;2023-02-22T04:11:29;97045.84;;;9.78;62.33
4199;BME280;2113;50.946;14.610;2023-02-22T04:13:58;97042.19;;;11.04;59.28
4199;BME280;2113;50.946;14.610;2023-02-22T04:16:27;97043.25;;;11.42;57.22
4199;BME280;2113;50.946;14.610;2023-02-22T04:18:55;97034.22;;;11.08;57.63
4199;BME280;2113;50.946;14.610;2023-02-22T04:21:23;97036.28;;;11.65;57.15
4199;BME280;2113;50.946;14.610;2023-02-22T04:23:52;97036.91;;;11.92;56.21
4199;BME280;2113;50.946;14.610;2023-02-22T04:26:20;97034.13;;;11.97;55.82
4199;BME280;2113;50.946;14.610;2023-02-22T04:28:53;97040.88;;;12.01;55.30
4199;BME280;2113;50.946;14.610;2023-02-22T04:31:23;97026.22;;;11.55;56.22
4199;BME280;2113;50.946;14.610;2023-02-22T04:33:53;97032.09;;;11.61;56.47
4199;BME280;2113;50.946;14.610;2023-02-22T04:36:26;97036.41;;;12.04;55.87
4199;BME280;2113;50.946;14.610;2023-02-22T04:38:56;97034.75;;;12.02;55.41
4199;BME280;2113;50.946;14.610;2023-02-22T04:41:26;97033.28;;;11.74;56.06
4199;BME280;2113;50.946;14.610;2023-02-22T04:43:54;97030.03;;;11.69;55.74
4199;BME280;2113;50.946;14.610;2023-02-22T04:46:24;97028.13;;;11.52;56.33
4199;BME280;2113;50.946;14.610;2023-02-22T04:48:53;97026.44;;;11.29;57.40
4199;BME280;2113;50.946;14.610;2023-02-22T04:51:24;97036.72;;;11.74;55.96
4199;BME280;2113;50.946;14.610;2023-02-22T04:53:58;97026.78;;;11.84;56.19
4199;BME280;2113;50.946;14.610;2023-02-22T04:56:28;97031.16;;;11.84;56.01
4199;BME280;2113;50.946;14.610;2023-02-22T04:58:56;97027.47;;;11.89;55.86
4199;BME280;2113;50.946;14.610;2023-02-22T05:01:24;97025.13;;;11.19;56.77
4199;BME280;2113;50.946;14.610;2023-02-22T05:03:52;97030.63;;;10.89;58.45
4199;BME280;2113;50.946;14.610;2023-02-22T05:06:20;97034.22;;;10.63;59.26
4199;BME280;2113;50.946;14.610;2023-02-22T05:08:48;97022.34;;;10.07;60.42
4199;BME280;2113;50.946;14.610;2023-02-22T05:11:18;97032.38;;;10.88;59.15
4199;BME280;2113;50.946;14.610;2023-02-22T05:13:46;97021.44;;;11.24;57.61
4199;BME280;2113;50.946;14.610;2023-02-22T05:16:14;97024.34;;;11.16;57.61
4199;BME280;2113;50.946;14.610;2023-02-22T05:18:43;97026.34;;;11.32;57.24
4199;BME280;2113;50.946;14.610;2023-02-22T05:21:11;97026.34;;;10.41;59.25
4199;BME280;2113;50.946;14.610;2023-02-22T05:23:40;97031.50;;;9.40;62.90
4199;BME280;2113;50.946;14.610;2023-02-22T05:26:08;97031.84;;;10.08;61.60
4199;BME280;2113;50.946;14.610;2023-02-22T05:28:39;97031.66;;;11.07;59.01
4199;BME280;2113;50.946;14.610;2023-02-22T05:31:07;97030.94;;;11.68;57.35
4199;BME280;2113;50.946;14.610;2023-02-22T05:33:35;97027.91;;;10.92;58.02
4199;BME280;2113;50.946;14.610;2023-02-22T05:36:06;97029.97;;;10.36;60.22
4199;BME280;2113;50.946;14.610;2023-02-22T05:38:36;97026.25;;;10.67;59.17
4199;BME280;2113;50.946;14.610;2023-02-22T05:41:10;97027.03;;;10.69;59.50
4199;BME280;2113;50.946;14.610;2023-02-22T05:43:40;97018.91;;;9.56;62.17
4199;BME280;2113;50.946;14.610;2023-02-22T05:46:08;97038.47;;;10.16;61.60
4199;BME280;2113;50.946;14.610;2023-02-22T05:48:36;97028.25;;;11.27;58.77
4199;BME280;2113;50.946;14.610;2023-02-22T05:51:05;97028.88;;;11.11;57.90
4199;BME280;2113;50.946;14.610;2023-02-22T05:53:33;97027.91;;;11.36;57.35
4199;BME280;2113;50.946;14.610;2023-02-22T05:56:01;97036.94;;;11.70;56.55
4199;BME280;2113;50.946;14.610;2023-02-22T05:58:30;97028.50;;;11.21;56.86
4199;BME280;2113;50.946;14.610;2023-02-22T06:00:59;97034.63;;;10.97;58.43
4199;BME280;2113;50.946;14.610;2023-02-22T06:03:29;97031.53;;;11.32;57.74
4199;BME280;2113;50.946;14.610;2023-02-22T06:05:57;97034.31;;;11.49;56.97
4199;BME280;2113;50.946;14.610;2023-02-22T06:08:25;97035.91;;;11.74;55.97
4199;BME280;2113;50.946;14.610;2023-02-22T06:10:53;97036.69;;;11.76;55.91
4199;BME280;2113;50.946;14.610;2023-02-22T06:13:21;97043.44;;;11.80;56.08
4199;BME280;2113;50.946;14.610;2023-02-22T06:15:49;97046.56;;;11.88;55.66
4199;BME280;2113;50.946;14.610;2023-02-22T06:18:19;97045.66;;;11.69;55.90
4199;BME280;2113;50.946;14.610;2023-02-22T06:20:47;97046.13;;;11.36;56.57
4199;BME280;2113;50.946;14.610;2023-02-22T06:23:16;97048.81;;;11.55;56.92
4199;BME280;2113;50.946;14.610;2023-02-22T06:25:44;97044.50;;;11.76;56.08
4199;BME280;2113;50.946;14.610;2023-02-22T06:28:13;97046.38;;;11.72;55.96
4199;BME280;2113;50.946;14.610;2023-02-22T06:30:41;97045.91;;;11.63;56.62
4199;BME280;2113;50.946;14.610;2023-02-22T06:33:10;97046.53;;;11.25;57.43
4199;BME280;2113;50.946;14.610;2023-02-22T06:35:39;97048.13;;;10.38;59.21
4199;BME280;2113;50.946;14.610;2023-02-22T06:38:08;97042.59;;;10.47;59.18
4199;BME280;2113;50.946;14.610;2023-02-22T06:40:36;97051.06;;;10.27;60.46
4199;BME280;2113;50.946;14.610;2023-02-22T06:43:04;97050.09;;;10.55;59.66
4199;BME280;2113;50.946;14.610;2023-02-22T06:45:32;97051.25;;;9.97;60.98
4199;BME280;2113;50.946;14.610;2023-02-22T06:48:01;97049.56;;;10.92;59.52
4199;BME280;2113;50.946;14.610;2023-02-22T06:50:29;97056.66;;;10.65;59.38
4199;BME280;2113;50.946;14.610;2023-02-22T06:53:03;97055.91;;;10.13;60.85
4199;BME280;2113;50.946;14.610;2023-02-22T06:55:33;97061.75;;;9.68;62.89
4199;BME280;2113;50.946;14.610;2023-02-22T06:58:02;97065.06;;;9.98;61.87
4199;BME280;2113;50.946;14.610;2023-02-22T07:00:31;97064.84;;;10.29;60.54
4199;BME280;2113;50.946;14.610;2023-02-22T07:03:00;97078.34;;;9.37;63.20
4199;BME280;2113;50.946;14.610;2023-02-22T07:05:30;97074.84;;;9.10;64.56
4199;BME280;2113;50.946;14.610;2023-02-22T07:08:04;97066.66;;;9.24;64.13
4199;BME280;2113;50.946;14.610;2023-02-22T07:10:34;97073.72;;;9.98;63.09
4199;BME280;2113;50.946;14.610;2023-02-22T07:13:05;97074.66;;;9.71;63.26
4199;BME280;2113;50.946;14.610;2023-02-22T07:15:34;97070.59;;;10.14;62.24
4199;BME280;2113;50.946;14.610;2023-02-22T07:18:03;97077.03;;;10.27;61.55
4199;BME280;2113;50.946;14.610;2023-02-22T07:20:31;97070.25;;;11.17;59.80
4199;BME280;2113;50.946;14.610;2023-02-22T07:23:00;97076.19;;;10.52;60.70
4199;BME280;2113;50.946;14.610;2023-02-22T07:25:30;97073.72;;;11.18;59.53
4199;BME280;2113;50.946;14.610;2023-02-22T07:27:58;97078.72;;;11.67;57.78
4199;BME280;2113;50.946;14.610;2023-02-22T07:30:28;97079.44;;;10.33;60.07
4199;BME280;2113;50.946;14.610;2023-02-22T07:32:58;97081.97;;;10.10;61.75
4199;BME280;2113;50.946;14.610;2023-02-22T07:35:29;97084.88;;;10.76;60.90
4199;BME280;2113;50.946;14.610;2023-02-22T07:37:58;97089.06;;;10.31;61.31
4199;BME280;2113;50.946;14.610;2023-02-22T07:40:27;97090.22;;;10.48;60.51
4199;BME280;2113;50.946;14.610;2023-02-22T07:42:59;97092.50;;;10.81;59.91
4199;BME280;2113;50.946;14.610;2023-02-22T07:45:30;97096.53;;;10.41;60.92
4199;BME280;2113;50.946;14.610;2023-02-22T07:47:59;97092.03;;;9.42;63.31
4199;BME280;2113;50.946;14.610;2023-02-22T07:50:29;97091.09;;;9.96;62.64
4199;BME280;2113;50.946;14.610;2023-02-22T07:53:00;97089.41;;;11.16;60.26
4199;BME280;2113;50.946;14.610;2023-02-22T07:55:30;97083.53;;;11.33;58.51
4199;BME280;2113;50.946;14.610;2023-02-22T07:58:04;97084.41;;;10.88;60.08
4199;BME280;2113;50.946;14.610;2023-02-22T08:00:34;97085.47;;;10.83;59.47
4199;BME280;2113;50.946;14.610;2023-02-22T08:03:05;97082.19;;;10.54;60.80
4199;BME280;2113;50.946;14.610;2023-02-22T08:05:58;97083.16;;;10.51;60.80
4199;BME280;2113;50.946;14.610;2023-02-22T08:08:28;97090.84;;;11.46;59.12
4199;BME280;2113;50.946;14.610;2023-02-22T08:10:56;97080.63;;;12.06;57.37
4199;BME280;2113;50.946;14.610;2023-02-22T08:13:26;97088.19;;;11.47;58.36
4199;BME280;2113;50.946;14.610;2023-02-22T08:15:54;97083.63;;;12.17;56.74
4199;BME280;2113;50.946;14.610;2023-02-22T08:18:23;97086.75;;;11.62;57.80
4199;BME280;2113;50.946;14.610;2023-02-22T08:20:52;97089.63;;;11.99;56.96
4199;BME280;2113;50.946;14.610;2023-02-22T08:23:22;97079.25;;;12.38;56.26
4199;BME280;2113;50.946;14.610;2023-02-22T08:25:52;97086.63;;;11.43;57.52
4199;BME280;2113;50.946;14.610;2023-02-22T08:28:22;97090.13;;;12.07;57.58
4199;BME280;2113;50.946;14.610;2023-02-22T08:30:52;97089.19;;;12.28;56.64
4199;BME280;2113;50.946;14.610;2023-02-22T08:33:21;97087.53;;;12.07;56.38
4199;BME280;2113;50.946;14.610;2023-02-22T08:35:49;97089.91;;;11.69;56.94
4199;BME280;2113;50.946;14.610;2023-02-22T08:38:20;97090.00;;;11.45;58.70
4199;BME280;2113;50.946;14.610;2023-02-22T08:40:49;97089.25;;;10.97;59.78
4199;BME280;2113;50.946;14.610;2023-02-22T08:43:18;97091.22;;;11.36;58.88
4199;BME280;2113;50.946;14.610;2023-02-22T08:45:50;97085.34;;;11.09;59.54
4199;BME280;2113;50.946;14.610;2023-02-22T08:48:21;97085.22;;;11.56;58.68
4199;BME280;2113;50.946;14.610;2023-02-22T08:50:50;97089.41;;;12.44;57.08
4199;BME280;2113;50.946;14.610;2023-02-22T08:53:18;97075.88;;;12.55;55.91
4199;BME280;2113;50.946;14.610;2023-02-22T08:55:46;97079.44;;;12.92;55.21
4199;BME280;2113;50.946;14.610;2023-02-22T08:58:15;97079.50;;;13.09;54.85
4199;BME280;2113;50.946;14.610;2023-02-22T09:00:44;97074.91;;;13.34;54.14
4199;BME280;2113;50.946;14.610;2023-02-22T09:03:13;97078.41;;;13.34;53.76
4199;BME280;2113;50.946;14.610;2023-02-22T09:05:43;97076.47;;;13.19;53.56
4199;BME280;2113;50.946;14.610;2023-02-22T09:08:12;97081.13;;;13.31;53.36
4199;BME280;2113;50.946;14.610;2023-02-22T09:10:42;97083.75;;;13.31;53.48
4199;BME280;2113;50.946;14.610;2023-02-22T09:13:11;97082.19;;;13.08;54.00
4199;BME280;2113;50.946;14.610;2023-02-22T09:15:39;97087.13;;;13.14;54.39
4199;BME280;2113;50.946;14.610;2023-02-22T09:18:09;97087.38;;;13.65;53.13
4199;BME280;2113;50.946;14.610;2023-02-22T09:20:40;97095.16;;;13.47;52.78
4199;BME280;2113;50.946;14.610;2023-02-22T09:23:10;97086.50;;;13.09;53.26
4199;BME280;2113;50.946;14.610;2023-02-22T09:25:40;97087.44;;;12.68;55.06
4199;BME280;2113;50.946;14.610;2023-02-22T09:28:08;97087.13;;;13.14;54.64
4199;BME280;2113;50.946;14.610;2023-02-22T09:30:36;97079.22;;;13.35;53.37
4199;BME280;2113;50.946;14.610;2023-02-22T09:33:07;97080.47;;;13.26;53.69
4199;BME280;2113;50.946;14.610;2023-02-22T09:35:37;97084.78;;;12.89;54.00
4199;BME280;2113;50.946;14.610;2023-02-22T09:38:10;97069.81;;;13.49;53.71
4199;BME280;2113;50.946;14.610;2023-02-22T09:40:40;97072.16;;;13.90;52.69
4199;BME280;2113;50.946;14.610;2023-02-22T09:43:20;97070.41;;;14.08;52.28
4199;BME280;2113;50.946;14.610;2023-02-22T09:46:03;97068.78;;;13.88;52.39
4199;BME280;2113;50.946;14.610;2023-02-22T09:48:35;97062.28;;;14.30;51.62
4199;BME280;2113;50.946;14.610;2023-02-22T09:51:10;97069.34;;;14.46;51.31
4199;BME280;2113;50.946;14.610;2023-02-22T09:53:44;97064.78;;;14.16;50.94
4199;BME280;2113;50.946;14.610;2023-02-22T09:56:17;97061.72;;;12.80;54.46
4199;BME280;2113;50.946;14.610;2023-02-22T09:58:49;97058.19;;;13.19;54.48
4199;BME280;2113;50.946;14.610;2023-02-22T10:01:24;97058.38;;;13.69;53.45
4199;BME280;2113;50.946;14.610;2023-02-22T10:03:58;97055.50;;;13.39;54.19
4199;BME280;2113;50.946;14.610;2023-02-22T10:06:29;97054.69;;;13.74;53.13
4199;BME280;2113;50.946;14.610;2023-02-22T10:09:02;97051.06;;;14.28;51.98
4199;BME280;2113;50.946;14.610;2023-02-22T10:11:43;97053.25;;;14.03;52.24
4199;BME280;2113;50.946;14.610;2023-02-22T10:17:23;97048.59;;;13.38;53.52
4199;BME280;2113;50.946;14.610;2023-02-22T10:20:03;97048.47;;;13.59;53.48
4199;BME280;2113;50.946;14.610;2023-02-22T10:22:44;97047.97;;;14.04;51.83
4199;BME280;2113;50.946;14.610;2023-02-22T10:25:20;97047.94;;;14.55;50.69
4199;BME280;2113;50.946;14.610;2023-02-22T10:27:55;97041.50;;;14.45;50.95
4199;BME280;2113;50.946;14.610;2023-02-22T10:30:28;97035.41;;;14.78;50.86
4199;BME280;2113;50.946;14.610;2023-02-22T10:33:04;97035.66;;;15.21;50.00
4199;BME280;2113;50.946;14.610;2023-02-22T10:35:37;97042.56;;;14.58;50.26
4199;BME280;2113;50.946;14.610;2023-02-22T10:38:12;97033.22;;;13.32;53.75
4199;BME280;2113;50.946;14.610;2023-02-22T10:40:48;97038.34;;;14.05;52.63
4199;BME280;2113;50.946;14.610;2023-02-22T10:43:17;97036.50;;;14.07;52.53
4199;BME280;2113;50.946;14.610;2023-02-22T10:45:46;97032.19;;;13.54;53.52
4199;BME280;2113;50.946;14.610;2023-02-22T10:48:15;97036.00;;;13.46;53.46
4199;BME280;2113;50.946;14.610;2023-02-22T10:50:45;97034.47;;;13.95;52.33
4199;BME280;2113;50.946;14.610;2023-02-22T10:53:14;97023.69;;;15.01;50.78
4199;BME280;2113;50.946;14.610;2023-02-22T10:56:17;97025.13;;;15.38;49.43
4199;BME280;2113;50.946;14.610;2023-02-22T10:58:49;97029.13;;;15.60;49.11
4199;BME280;2113;50.946;14.610;2023-02-22T11:01:32;97025.72;;;14.96;49.82
4199;BME280;2113;50.946;14.610;2023-02-22T11:04:10;97021.53;;;15.39;49.95
4199;BME280;2113;50.946;14.610;2023-02-22T11:06:40;97017.16;;;15.70;48.77
4199;BME280;2113;50.946;14.610;2023-02-22T11:09:13;97022.81;;;13.84;52.08
4199;BME280;2113;50.946;14.610;2023-02-22T11:11:44;97018.00;;;14.27;53.00
4199;BME280;2113;50.946;14.610;2023-02-22T11:14:24;97013.81;;;14.90;50.98
4199;BME280;2113;50.946;14.610;2023-02-22T11:16:54;97010.69;;;14.50;52.25
4199;BME280;2113;50.946;14.610;2023-02-22T11:19:25;97006.97;;;15.03;51.66
4199;BME280;2113;50.946;14.610;2023-02-22T11:21:57;97007.97;;;15.17;51.29
4199;BME280;2113;50.946;14.610;2023-02-22T11:24:26;97005.53;;;15.60;49.57
4199;BME280;2113;50.946;14.610;2023-02-22T11:27:24;97002.09;;;14.48;52.20
4199;BME280;2113;50.946;14.610;2023-02-22T11:29:55;96997.03;;;14.94;51.23
4199;BME280;2113;50.946;14.610;2023-02-22T11:32:26;96998.84;;;14.92;51.20
4199;BME280;2113;50.946;14.610;2023-02-22T11:35:28;96995.75;;;16.22;49.31
4199;BME280;2113;50.946;14.610;2023-02-22T11:38:10;97000.88;;;14.71;53.73
4199;BME280;2113;50.946;14.610;2023-02-22T11:40:38;96998.53;;;13.65;55.50
4199;BME280;2113;50.946;14.610;2023-02-22T11:43:08;97000.00;;;13.53;55.72
4199;BME280;2113;50.946;14.610;2023-02-22T11:45:38;96998.16;;;14.23;54.69
4199;BME280;2113;50.946;14.610;2023-02-22T11:48:22;96995.53;;;12.82;57.32
4199;BME280;2113;50.946;14.610;2023-02-22T11:51:00;96999.81;;;13.74;55.32
4199;BME280;2113;50.946;14.610;2023-02-22T11:53:40;96996.31;;;12.84;58.48
4199;BME280;2113;50.946;14.610;2023-02-22T11:56:13;96983.94;;;13.43;56.83
4199;BME280;2113;50.946;14.610;2023-02-22T11:58:57;96985.38;;;13.12;57.84
4199;BME280;2113;50.946;14.610;2023-02-22T12:01:34;96975.75;;;14.35;55.25
4199;BME280;2113;50.946;14.610;2023-02-22T12:07:13;96981.16;;;13.81;56.80
4199;BME280;2113;50.946;14.610;2023-02-22T12:09:48;96974.22;;;14.96;53.08
4199;BME280;2113;50.946;14.610;2023-02-22T12:12:24;96976.34;;;15.36;51.68
4199;BME280;2113;50.946;14.610;2023-02-22T12:15:02;96975.91;;;14.81;52.79
4199;BME280;2113;50.946;14.610;2023-02-22T12:17:43;96980.34;;;15.27;51.88
4199;BME280;2113;50.946;14.610;2023-02-22T12:20:28;96976.34;;;15.36;50.81
4199;BME280;2113;50.946;14.610;2023-02-22T12:23:05;96978.06;;;15.21;51.36
4199;BME280;2113;50.946;14.610;2023-02-22T12:25:48;96969.31;;;14.74;52.32
4199;BME280;2113;50.946;14.610;2023-02-22T12:28:24;96976.97;;;14.12;53.68
4199;BME280;2113;50.946;14.610;2023-02-22T12:31:03;96969.31;;;14.74;53.37
4199;BME280;2113;50.946;14.610;2023-02-22T12:33:41;96975.03;;;15.13;52.70
4199;BME280;2113;50.946;14.610;2023-02-22T12:36:13;96974.38;;;14.61;53.05
4199;BME280;2113;50.946;14.610;2023-02-22T12:38:48;96984.03;;;12.86;58.07
4199;BME280;2113;50.946;14.610;2023-02-22T12:41:25;96981.50;;;12.85;58.58
4199;BME280;2113;50.946;14.610;2023-02-22T12:44:01;96975.47;;;13.02;58.78
4199;BME280;2113;50.946;14.610;2023-02-22T12:46:36;96975.59;;;14.05;56.12
4199;BME280;2113;50.946;14.610;2023-02-22T12:49:11;96971.56;;;13.10;57.58
4199;BME280;2113;50.946;14.610;2023-02-22T12:51:44;96973.06;;;13.34;57.62
4199;BME280;2113;50.946;14.610;2023-02-22T12:54:20;96979.34;;;11.98;61.07
4199;BME280;2113;50.946;14.610;2023-02-22T12:56:56;96976.41;;;12.06;61.12
4199;BME280;2113;50.946;14.610;2023-02-22T12:59:31;96972.09;;;13.71;56.41
4199;BME280;2113;50.946;14.610;2023-02-22T13:02:11;96966.19;;;13.13;57.28
4199;BME280;2113;50.946;14.610;2023-02-22T13:04:39;96974.56;;;11.87;60.23
4199;BME280;2113;50.946;14.610;2023-02-22T13:07:17;96970.91;;;11.50;61.95
4199;BME280;2113;50.946;14.610;2023-02-22T13:10:18;96965.28;;;12.21;60.80
4199;BME280;2113;50.946;14.610;2023-02-22T13:12:58;96960.25;;;13.64;55.56
4199;BME280;2113;50.946;14.610;2023-02-22T13:15:38;96967.91;;;12.59;57.98
4199;BME280;2113;50.946;14.610;2023-02-22T13:18:15;96966.59;;;12.11;59.28
4199;BME280;2113;50.946;14.610;2023-02-22T13:20:48;96966.25;;;12.19;59.41
4199;BME280;2113;50.946;14.610;2023-02-22T13:23:28;96963.47;;;12.61;58.70
4199;BME280;2113;50.946;14.610;2023-02-22T13:26:05;96969.38;;;12.27;59.76
4199;BME280;2113;50.946;14.610;2023-02-22T13:28:38;96968.50;;;12.26;59.41
4199;BME280;2113;50.946;14.610;2023-02-22T13:31:24;96968.81;;;12.58;57.61
4199;BME280;2113;50.946;14.610;2023-02-22T13:34:17;96960.34;;;12.53;58.81
4199;BME280;2113;50.946;14.610;2023-02-22T13:37:05;96966.59;;;13.23;57.03
4199;BME280;2113;50.946;14.610;2023-02-22T13:42:41;96963.78;;;11.97;60.87
4199;BME280;2113;50.946;14.610;2023-02-22T13:45:45;96958.56;;;11.97;60.78
4199;BME280;2113;50.946;14.610;2023-02-22T13:48:33;96962.53;;;11.64;61.81
4199;BME280;2113;50.946;14.610;2023-02-22T13:51:08;96965.19;;;11.83;61.55
4199;BME280;2113;50.946;14.610;2023-02-22T13:53:45;96964.59;;;11.76;62.30
4199;BME280;2113;50.946;14.610;2023-02-22T13:56:17;96964.41;;;11.81;61.85